createdAt,value
2022-11-04T00:02:15.229Z,8.50
2022-11-04T00:04:44.884Z,8.50
2022-11-04T00:07:26.828Z,8.50
2022-11-04T00:09:54.917Z,8.50
2022-11-04T00:12:26.699Z,8.60
2022-11-04T00:15:15.223Z,9.00
2022-11-04T00:17:42.385Z,8.60
2022-11-04T00:20:26.476Z,9.80
2022-11-04T00:23:13.991Z,8.60
2022-11-04T00:25:59.302Z,8.60
2022-11-04T00:28:45.708Z,8.70
2022-11-04T00:31:31.044Z,10.00
2022-11-04T00:34:00.219Z,8.70
2022-11-04T00:36:29.754Z,8.80
2022-11-04T00:38:57.990Z,9.00
2022-11-04T00:41:30.046Z,8.80
2022-11-04T00:43:59.978Z,8.80
2022-11-04T00:46:32.255Z,9.60
2022-11-04T00:49:00.678Z,9.00
2022-11-04T00:51:30.998Z,9.00
2022-11-04T00:53:59.213Z,10.50
2022-11-04T00:56:27.442Z,9.10
2022-11-04T00:58:55.571Z,9.00
2022-11-04T01:01:23.691Z,10.20
2022-11-04T01:03:53.713Z,9.10
2022-11-04T01:06:23.948Z,9.10
2022-11-04T01:08:58.526Z,9.30
2022-11-04T01:11:28.299Z,9.50
2022-11-04T01:13:56.880Z,9.10
2022-11-04T01:16:25.892Z,9.10
2022-11-04T01:18:54.357Z,10.40
2022-11-04T01:21:22.523Z,9.00
2022-11-04T01:23:50.615Z,9.00
2022-11-04T01:26:22.207Z,9.90
2022-11-04T01:28:54.626Z,9.30
2022-11-04T01:31:25.430Z,9.00
2022-11-04T01:33:55.391Z,9.00
2022-11-04T01:36:24.071Z,8.80
2022-11-04T01:38:52.245Z,8.90
2022-11-04T01:41:24.180Z,8.90
2022-11-04T01:43:54.245Z,9.00
2022-11-04T01:46:30.737Z,9.00
2022-11-04T01:49:04.670Z,9.00
2022-11-04T01:51:38.890Z,9.00
2022-11-04T01:54:09.310Z,9.00
2022-11-04T01:56:39.763Z,9.10
2022-11-04T01:59:11.706Z,9.00
2022-11-04T02:01:39.962Z,8.90
2022-11-04T02:04:25.291Z,10.70
2022-11-04T02:06:55.675Z,9.00
2022-11-04T02:09:25.494Z,9.00
2022-11-04T02:12:12.485Z,9.00
2022-11-04T02:14:41.657Z,9.10
2022-11-04T02:17:30.479Z,9.80
2022-11-04T02:20:21.307Z,8.80
2022-11-04T02:23:21.921Z,8.90
2022-11-04T02:26:18.802Z,8.90
2022-11-04T02:29:17.525Z,9.90
2022-11-04T02:31:52.671Z,9.00
2022-11-04T02:34:27.250Z,9.20
2022-11-04T02:37:07.689Z,9.00
2022-11-04T02:39:41.911Z,8.90
2022-11-04T02:42:15.371Z,9.00
2022-11-04T02:44:50.807Z,8.90
2022-11-04T02:47:23.038Z,9.80
2022-11-04T02:49:56.367Z,9.00
2022-11-04T02:52:30.941Z,8.90
2022-11-04T02:55:03.287Z,8.90
2022-11-04T02:57:35.338Z,10.40
2022-11-04T03:00:07.320Z,8.90
2022-11-04T03:02:40.575Z,8.90
2022-11-04T03:05:12.311Z,8.80
2022-11-04T03:07:43.883Z,8.80
2022-11-04T03:10:16.910Z,8.80
2022-11-04T03:12:49.788Z,8.90
2022-11-04T03:15:24.318Z,8.80
2022-11-04T03:17:56.911Z,8.70
2022-11-04T03:20:27.704Z,8.80
2022-11-04T03:22:59.859Z,10.00
2022-11-04T03:25:33.544Z,8.70
2022-11-04T03:28:07.562Z,8.70
2022-11-04T03:30:43.307Z,8.70
2022-11-04T03:33:19.262Z,8.70
2022-11-04T03:35:48.034Z,10.00
2022-11-04T03:38:16.235Z,8.60
2022-11-04T03:40:44.309Z,8.70
2022-11-04T03:43:17.536Z,8.70
2022-11-04T03:45:47.201Z,8.70
2022-11-04T03:48:15.334Z,8.70
2022-11-04T03:50:45.702Z,8.70
2022-11-04T03:53:15.627Z,8.70
2022-11-04T03:55:53.051Z,8.70
2022-11-04T03:58:35.826Z,8.70
2022-11-04T04:01:19.760Z,8.70
2022-11-04T04:03:54.354Z,8.60
2022-11-04T04:06:27.942Z,10.00
2022-11-04T04:09:00.030Z,8.60
2022-11-04T04:11:39.009Z,8.60
2022-11-04T04:14:35.318Z,8.60
2022-11-04T04:17:06.580Z,8.70
2022-11-04T04:19:36.066Z,8.70
2022-11-04T04:22:08.181Z,8.70
2022-11-04T04:24:57.002Z,8.70
2022-11-04T04:27:34.407Z,8.70
2022-11-04T04:30:05.856Z,8.80
2022-11-04T04:32:39.876Z,8.90
2022-11-04T04:35:27.359Z,8.70
2022-11-04T04:38:18.007Z,8.70
2022-11-04T04:41:08.952Z,8.60
2022-11-04T04:43:55.651Z,8.70
2022-11-04T04:46:24.445Z,8.70
2022-11-04T04:48:53.858Z,8.70
2022-11-04T04:51:23.075Z,8.70
2022-11-04T04:53:51.676Z,8.70
2022-11-04T04:56:19.778Z,8.70
2022-11-04T04:58:47.969Z,10.00
2022-11-04T05:01:16.224Z,9.30
2022-11-04T05:03:45.417Z,8.70
2022-11-04T05:06:15.144Z,8.60
2022-11-04T05:08:43.270Z,9.90
2022-11-04T05:11:11.428Z,8.60
2022-11-04T05:13:39.668Z,8.70
2022-11-04T05:16:09.686Z,8.70
2022-11-04T05:18:38.389Z,8.60
2022-11-04T05:21:07.527Z,8.60
2022-11-04T05:23:37.342Z,8.60
2022-11-04T05:26:05.643Z,8.60
2022-11-04T05:28:33.995Z,8.50
2022-11-04T05:31:05.092Z,8.50
2022-11-04T05:33:33.548Z,8.60
2022-11-04T05:36:08.080Z,8.60
2022-11-04T05:38:38.225Z,8.70
2022-11-04T05:41:08.139Z,10.20
2022-11-04T05:43:36.740Z,8.60
2022-11-04T05:46:05.159Z,8.90
2022-11-04T05:48:37.735Z,8.60
2022-11-04T05:51:08.438Z,8.70
2022-11-04T05:53:37.814Z,8.70
2022-11-04T05:56:06.188Z,8.70
2022-11-04T05:58:34.458Z,8.70
2022-11-04T06:01:24.553Z,10.40
2022-11-04T06:03:53.157Z,8.90
2022-11-04T06:06:21.927Z,10.60
2022-11-04T06:08:52.230Z,8.70
2022-11-04T06:11:21.484Z,8.80
2022-11-04T06:13:50.201Z,8.70
2022-11-04T06:16:18.690Z,8.70
2022-11-04T06:18:46.840Z,8.80
2022-11-04T06:21:25.327Z,8.70
2022-11-04T06:23:57.278Z,8.70
2022-11-04T06:26:28.346Z,8.70
2022-11-04T06:28:56.752Z,8.70
2022-11-04T06:31:24.855Z,8.70
2022-11-04T06:33:52.932Z,8.70
2022-11-04T06:36:20.984Z,8.90
2022-11-04T06:38:49.013Z,8.70
2022-11-04T06:41:18.901Z,8.90
2022-11-04T06:43:46.954Z,8.70
2022-11-04T06:46:29.416Z,8.70
2022-11-04T06:48:58.318Z,8.60
2022-11-04T06:51:26.860Z,8.90
2022-11-04T06:53:55.168Z,8.60
2022-11-04T06:56:24.774Z,8.60
2022-11-04T06:58:54.461Z,8.70
2022-11-04T07:01:24.866Z,8.70
2022-11-04T07:03:54.304Z,8.60
2022-11-04T07:06:23.001Z,9.30
2022-11-04T07:08:52.922Z,8.60
2022-11-04T07:11:23.411Z,8.60
2022-11-04T07:13:53.201Z,8.50
2022-11-04T07:16:21.191Z,8.60
2022-11-04T07:18:50.335Z,8.60
2022-11-04T07:21:18.930Z,8.60
2022-11-04T07:23:47.311Z,8.50
2022-11-04T07:26:15.741Z,8.50
2022-11-04T07:28:43.970Z,8.50
2022-11-04T07:31:14.772Z,8.50
2022-11-04T07:33:43.119Z,8.60
2022-11-04T07:36:14.372Z,8.50
2022-11-04T07:38:42.472Z,8.40
2022-11-04T07:41:12.795Z,8.50
2022-11-04T07:43:41.436Z,8.40
2022-11-04T07:46:12.032Z,8.40
2022-11-04T07:48:41.660Z,8.40
2022-11-04T07:51:12.862Z,8.40
2022-11-04T07:53:41.072Z,8.40
2022-11-04T07:56:12.703Z,8.60
2022-11-04T07:58:41.234Z,8.40
2022-11-04T08:01:11.445Z,8.30
2022-11-04T08:03:41.276Z,8.30
2022-11-04T08:06:11.480Z,8.50
2022-11-04T08:08:40.060Z,9.50
2022-11-04T08:11:15.922Z,8.30
2022-11-04T08:13:46.226Z,8.30
2022-11-04T08:16:16.672Z,8.30
2022-11-04T08:18:46.263Z,8.20
2022-11-04T08:21:14.680Z,9.60
2022-11-04T08:23:43.011Z,8.20
2022-11-04T08:26:12.493Z,8.20
2022-11-04T08:28:40.622Z,8.20
2022-11-04T08:31:13.104Z,8.20
2022-11-04T08:33:42.000Z,8.20
2022-11-04T08:36:13.883Z,8.80
2022-11-04T08:38:42.202Z,8.70
2022-11-04T08:41:12.157Z,8.20
2022-11-04T08:43:40.444Z,8.30
2022-11-04T08:46:10.973Z,8.30
2022-11-04T08:48:40.231Z,8.40
2022-11-04T08:51:17.100Z,8.50
2022-11-04T08:53:45.453Z,8.60
2022-11-04T08:56:15.439Z,9.40
2022-11-04T08:58:43.630Z,9.30
2022-11-04T09:01:12.753Z,9.00
2022-11-04T09:03:43.021Z,9.00
2022-11-04T09:06:13.600Z,9.10
2022-11-04T09:08:43.592Z,9.10
2022-11-04T09:11:14.269Z,9.90
2022-11-04T09:13:42.439Z,9.00
2022-11-04T09:16:13.324Z,9.10
2022-11-04T09:18:41.906Z,9.30
2022-11-04T09:21:11.251Z,10.90
2022-11-04T09:23:39.616Z,9.50
2022-11-04T09:26:13.131Z,9.50
2022-11-04T09:28:41.598Z,11.20
2022-11-04T09:31:12.437Z,9.80
2022-11-04T09:33:40.594Z,9.80
2022-11-04T09:36:10.155Z,9.80
2022-11-04T09:38:38.676Z,9.80
2022-11-04T09:41:43.354Z,11.50
2022-11-04T09:44:21.863Z,9.90
2022-11-04T09:46:52.283Z,10.00
2022-11-04T09:49:21.291Z,9.70
2022-11-04T09:51:55.132Z,9.70
2022-11-04T09:54:25.984Z,10.60
2022-11-04T09:56:58.991Z,9.80
2022-11-04T09:59:29.798Z,9.60
2022-11-04T10:02:22.341Z,9.70
2022-11-04T10:05:00.390Z,9.60
2022-11-04T10:07:46.382Z,10.30
2022-11-04T10:10:24.376Z,9.30
2022-11-04T10:13:09.828Z,9.90
2022-11-04T10:16:03.584Z,9.30
2022-11-04T10:18:46.573Z,9.20
2022-11-04T10:21:27.089Z,9.10
2022-11-04T10:24:18.536Z,10.10
2022-11-04T10:26:50.171Z,9.00
2022-11-04T10:29:26.497Z,9.00
2022-11-04T10:31:57.235Z,10.00
2022-11-04T10:34:32.179Z,11.40
2022-11-04T10:37:00.353Z,9.00
2022-11-04T10:39:31.820Z,9.40
2022-11-04T10:42:00.010Z,9.20
2022-11-04T10:44:31.504Z,11.00
2022-11-04T10:47:12.939Z,10.60
2022-11-04T10:50:35.046Z,9.50
2022-11-04T10:52:56.453Z,9.60
2022-11-04T10:55:36.778Z,9.60
2022-11-04T10:58:10.710Z,9.60
2022-11-04T11:00:42.691Z,11.60
2022-11-04T11:03:25.219Z,9.90
2022-11-04T11:05:53.811Z,11.20
2022-11-04T11:08:31.911Z,9.60
2022-11-04T11:11:00.510Z,9.50
2022-11-04T11:13:35.442Z,9.60
2022-11-04T11:16:11.770Z,9.60
2022-11-04T11:18:41.981Z,9.80
2022-11-04T11:21:13.840Z,10.20
2022-11-04T11:23:45.395Z,9.80
2022-11-04T11:26:15.400Z,10.30
2022-11-04T11:28:55.811Z,9.90
2022-11-04T11:31:37.479Z,9.90
2022-11-04T11:34:07.273Z,9.80
2022-11-04T11:36:40.086Z,10.00
2022-11-04T11:39:19.020Z,10.00
2022-11-04T11:41:54.423Z,9.80
2022-11-04T11:44:31.564Z,10.00
2022-11-04T11:47:03.428Z,9.70
2022-11-04T11:49:34.415Z,6.60
2022-11-04T11:52:32.626Z,10.40
2022-11-04T11:55:08.573Z,9.80
2022-11-04T11:57:46.612Z,9.40
2022-11-04T12:00:40.321Z,9.60
2022-11-04T12:03:16.856Z,9.20
2022-11-04T12:12:04.623Z,9.20
2022-11-04T12:14:49.229Z,9.20
2022-11-04T12:17:26.633Z,9.20
2022-11-04T12:20:10.199Z,9.50
2022-11-04T12:22:47.808Z,9.20
2022-11-04T12:25:24.230Z,9.20
2022-11-04T12:28:00.480Z,9.20
2022-11-04T12:30:38.025Z,9.20
2022-11-04T12:33:18.767Z,9.10
2022-11-04T12:36:08.059Z,9.20
2022-11-04T12:38:48.610Z,9.20
2022-11-04T12:44:23.769Z,9.60
2022-11-04T12:47:00.763Z,10.60
2022-11-04T12:49:50.276Z,9.30
2022-11-04T12:52:33.989Z,9.30
2022-11-04T12:55:16.352Z,9.40
2022-11-04T12:57:52.326Z,9.40
2022-11-04T13:00:24.843Z,9.40
2022-11-04T13:03:01.742Z,9.30
2022-11-04T13:05:39.031Z,9.40
2022-11-04T13:08:17.143Z,9.40
2022-11-04T13:10:50.160Z,9.50
2022-11-04T13:13:22.125Z,9.50
2022-11-04T13:15:55.012Z,9.50
2022-11-04T13:18:27.771Z,9.60
2022-11-04T13:21:02.645Z,9.60
2022-11-04T13:23:39.618Z,9.60
2022-11-04T13:26:12.213Z,11.50
2022-11-04T13:28:41.925Z,12.20
2022-11-04T13:31:17.345Z,9.60
2022-11-04T13:33:51.634Z,9.50
2022-11-04T13:36:31.230Z,9.50
2022-11-04T13:39:07.659Z,10.00
2022-11-04T13:42:05.396Z,9.50
2022-11-04T13:44:38.642Z,9.50
2022-11-04T13:47:20.689Z,10.60
2022-11-04T13:49:52.671Z,10.50
2022-11-04T13:52:21.290Z,9.40
2022-11-04T13:54:58.904Z,10.10
2022-11-04T13:57:29.396Z,9.50
2022-11-04T14:00:22.576Z,11.40
2022-11-04T14:02:51.314Z,9.50
2022-11-04T14:06:07.398Z,10.40
2022-11-04T14:08:36.256Z,9.40
2022-11-04T14:11:14.852Z,9.40
2022-11-04T14:14:17.046Z,11.40
2022-11-04T14:16:46.557Z,9.50
2022-11-04T14:19:57.141Z,9.40
2022-11-04T14:22:34.288Z,9.40
2022-11-04T14:25:04.941Z,11.30
2022-11-04T14:27:40.914Z,9.40
2022-11-04T14:30:32.332Z,9.50
2022-11-04T14:33:03.367Z,9.40
2022-11-04T14:38:20.723Z,9.40
2022-11-04T14:40:52.305Z,9.30
2022-11-04T14:43:35.945Z,9.20
2022-11-04T14:46:04.379Z,9.20
2022-11-04T14:48:33.662Z,10.00
2022-11-04T14:51:01.940Z,9.20
2022-11-04T14:53:33.289Z,9.70
2022-11-04T14:56:06.530Z,9.20
2022-11-04T14:58:39.577Z,9.30
2022-11-04T15:01:11.969Z,9.20
2022-11-04T15:06:56.026Z,9.10
2022-11-04T15:09:23.368Z,9.10
2022-11-04T15:12:09.206Z,9.10
2022-11-04T15:14:39.355Z,9.30
2022-11-04T15:17:07.512Z,9.00
2022-11-04T15:19:37.453Z,8.90
2022-11-04T15:22:07.401Z,10.20
2022-11-04T15:24:36.752Z,8.90
2022-11-04T15:27:06.772Z,9.20
2022-11-04T15:29:35.174Z,8.80
2022-11-04T15:32:06.635Z,8.90
2022-11-04T15:34:36.671Z,8.70
2022-11-04T15:37:06.364Z,8.70
2022-11-04T15:39:38.689Z,10.80
2022-11-04T15:42:29.915Z,8.60
2022-11-04T15:45:00.814Z,8.60
2022-11-04T15:47:30.349Z,9.30
2022-11-04T15:50:05.705Z,8.50
2022-11-04T15:52:35.475Z,8.50
2022-11-04T15:55:05.792Z,8.40
2022-11-04T15:57:39.368Z,8.40
2022-11-04T16:00:10.269Z,8.40
2022-11-04T16:02:48.279Z,8.30
2022-11-04T16:05:26.831Z,8.30
2022-11-04T16:07:58.473Z,8.30
2022-11-04T16:10:31.329Z,8.30
2022-11-04T16:13:01.098Z,9.00
2022-11-04T16:15:40.595Z,8.60
2022-11-04T16:18:24.315Z,8.30
2022-11-04T16:20:55.031Z,8.30
2022-11-04T16:23:25.884Z,8.90
2022-11-04T16:25:58.588Z,8.30
2022-11-04T16:28:29.716Z,10.40
2022-11-04T16:30:58.836Z,9.90
2022-11-04T16:33:28.298Z,8.30
2022-11-04T16:35:56.502Z,8.20
2022-11-04T16:38:24.711Z,8.20
2022-11-04T16:40:52.990Z,8.20
2022-11-04T16:43:22.582Z,8.60
2022-11-04T16:45:53.968Z,8.20
2022-11-04T16:48:25.363Z,8.10
2022-11-04T16:50:54.934Z,8.10
2022-11-04T16:53:22.979Z,8.10
2022-11-04T16:55:51.647Z,8.10
2022-11-04T16:58:20.172Z,8.10
2022-11-04T17:00:48.438Z,9.00
2022-11-04T17:03:21.736Z,8.00
2022-11-04T17:05:50.658Z,8.00
2022-11-04T17:08:23.625Z,10.20
2022-11-04T17:10:51.899Z,9.40
2022-11-04T17:13:20.158Z,9.40
2022-11-04T17:18:18.858Z,7.90
2022-11-04T17:20:50.937Z,7.90
2022-11-04T17:25:50.271Z,5.30
2022-11-04T17:28:21.746Z,7.90
2022-11-04T17:33:21.837Z,7.90
2022-11-04T17:35:54.747Z,7.90
2022-11-04T17:41:10.530Z,9.80
2022-11-04T17:43:56.947Z,10.10
2022-11-04T17:46:41.879Z,8.40
2022-11-04T17:49:13.733Z,7.80
2022-11-04T17:51:45.920Z,8.00
2022-11-04T17:56:44.284Z,7.80
2022-11-04T17:59:14.417Z,9.00
2022-11-04T18:01:44.181Z,8.70
2022-11-04T18:04:15.873Z,8.70
2022-11-04T18:06:46.696Z,7.80
2022-11-04T18:09:16.105Z,7.70
2022-11-04T18:12:04.278Z,7.70
2022-11-04T18:14:33.264Z,7.70
2022-11-04T18:17:01.552Z,7.70
2022-11-04T18:19:31.704Z,7.70
2022-11-04T18:21:59.793Z,7.70
2022-11-04T18:24:28.561Z,8.90
2022-11-04T18:26:59.407Z,7.60
2022-11-04T18:29:30.579Z,7.60
2022-11-04T18:31:59.677Z,8.80
2022-11-04T18:36:58.943Z,7.70
2022-11-04T18:39:27.528Z,7.80
2022-11-04T18:41:57.317Z,7.80
2022-11-04T18:51:51.341Z,7.90
2022-11-04T18:56:49.393Z,7.90
2022-11-04T18:59:18.978Z,7.90
2022-11-04T19:01:47.375Z,7.90
2022-11-04T19:06:46.841Z,7.80
2022-11-04T19:09:46.184Z,7.80
2022-11-04T19:14:54.628Z,7.00
2022-11-04T19:17:23.797Z,7.70
2022-11-04T19:32:23.457Z,7.70
2022-11-04T19:47:33.979Z,7.50
2022-11-04T19:52:32.492Z,7.50
2022-11-04T19:57:30.099Z,7.50
2022-11-04T20:02:26.856Z,7.50
2022-11-04T20:04:56.860Z,7.50
2022-11-04T20:09:55.077Z,7.50
2022-11-04T20:15:12.396Z,7.50
2022-11-04T20:17:40.590Z,7.40
2022-11-04T20:20:10.407Z,7.40
2022-11-04T20:22:38.731Z,7.40
2022-11-04T20:25:07.860Z,7.40
2022-11-04T20:30:06.367Z,7.40
2022-11-04T20:35:07.271Z,7.40
2022-11-04T20:37:36.879Z,7.40
2022-11-04T20:42:34.541Z,7.30
2022-11-04T20:45:02.864Z,7.30
2022-11-04T20:47:31.826Z,7.20
2022-11-04T20:50:00.101Z,7.20
2022-11-04T20:52:28.224Z,7.20
2022-11-04T20:54:57.632Z,7.20
2022-11-04T21:02:24.907Z,7.10
2022-11-04T21:04:54.259Z,7.10
2022-11-04T21:12:22.851Z,6.90
2022-11-04T21:17:19.883Z,6.80
2022-11-04T21:19:48.287Z,6.70
2022-11-04T21:22:16.414Z,6.70
2022-11-04T21:24:44.518Z,6.70
2022-11-04T21:29:42.593Z,6.50
2022-11-04T21:39:36.167Z,6.30
2022-11-04T21:42:04.444Z,6.30
2022-11-04T21:47:02.888Z,6.20
2022-11-04T21:54:28.580Z,6.20
2022-11-04T21:56:56.743Z,6.20
2022-11-04T21:59:25.743Z,6.30
2022-11-04T22:01:54.140Z,6.30
2022-11-04T22:04:23.922Z,6.30
2022-11-04T22:06:52.120Z,6.30
2022-11-04T22:09:20.279Z,6.30
2022-11-04T22:11:48.466Z,6.30
2022-11-04T22:14:16.609Z,6.30
2022-11-04T22:16:44.684Z,6.30
2022-11-04T22:19:14.458Z,6.30
2022-11-04T22:21:46.002Z,6.30
2022-11-04T22:24:16.372Z,6.20
2022-11-04T22:26:45.253Z,6.20
2022-11-04T22:31:43.140Z,6.00
2022-11-04T22:34:11.785Z,5.90
2022-11-04T22:36:39.932Z,5.80
2022-11-04T22:39:16.390Z,5.80
2022-11-04T22:41:49.987Z,5.80
2022-11-04T22:46:46.541Z,5.90
2022-11-04T22:51:43.760Z,5.90
2022-11-04T22:54:13.347Z,5.90
2022-11-04T22:56:41.836Z,6.00
2022-11-04T22:59:11.160Z,6.00
2022-11-04T23:04:11.964Z,6.00
2022-11-04T23:09:08.868Z,6.00
2022-11-04T23:11:58.423Z,6.00
2022-11-04T23:14:43.765Z,6.00
2022-11-04T23:17:33.686Z,6.10
2022-11-04T23:20:02.066Z,6.10
2022-11-04T23:22:50.169Z,6.10
2022-11-04T23:25:18.582Z,6.10
2022-11-04T23:28:06.876Z,6.10
2022-11-04T23:30:37.533Z,6.10
2022-11-04T23:33:07.740Z,6.10
2022-11-04T23:35:56.882Z,6.10
2022-11-04T23:38:26.100Z,6.10
2022-11-04T23:41:15.124Z,6.10
2022-11-04T23:43:45.141Z,6.10
2022-11-04T23:46:31.392Z,6.20
2022-11-04T23:54:54.101Z,6.20
2022-11-04T23:57:39.413Z,6.30
